Time;durP1;ratioP1;P1;durP2;ratioP2;P2;SDS_P1;SDS_P2;PMS_P1;PMS_P2;Temp;Humidity;BMP_temperature;BMP_pressure;BME280_temperature;BME280_humidity;BME280_pressure;Samples;Min_cycle;Max_cycle;Signal;HPM_P1;HPM_P2
2021/12/09 00:01:13;;;;;;;31.17;19.20;;;;;;;;;;5083094;28;20020;-72
2021/12/09 00:03:40;;;;;;;31.23;19.67;;;;;;;;;;5092493;28;20040;-72
2021/12/09 00:06:06;;;;;;;31.13;19.53;;;;;;;;;;5113469;28;20020;-74
2021/12/09 00:08:31;;;;;;;35.53;20.67;;;;;;;;;;5113300;28;20024;-72
2021/12/09 00:10:58;;;;;;;31.90;20.40;;;;;;;;;;5087904;28;20035;-73
2021/12/09 00:13:24;;;;;;;32.80;20.27;;;;;;;;;;5112389;28;20026;-72
2021/12/09 00:15:50;;;;;;;33.47;19.40;;;;;;;;;;5112691;28;20020;-73
2021/12/09 00:18:16;;;;;;;33.67;21.57;;;;;;;;;;5114677;28;20491;-73
2021/12/09 00:20:41;;;;;;;36.33;22.17;;;;;;;;;;5111237;28;20030;-72
2021/12/09 00:23:07;;;;;;;32.07;19.03;;;;;;;;;;5113268;28;20047;-72
2021/12/09 00:25:33;;;;;;;33.67;20.23;;;;;;;;;;5095182;28;20120;-73
2021/12/09 00:27:58;;;;;;;37.60;21.93;;;;;;;;;;5100738;28;20058;-73
2021/12/09 00:30:23;;;;;;;35.47;20.80;;;;;;;;;;5106768;28;20027;-72
2021/12/09 00:32:49;;;;;;;34.57;20.20;;;;;;;;;;5114047;28;20024;-73
2021/12/09 00:35:16;;;;;;;31.60;21.17;;;;;;;;;;5095260;28;20019;-73
2021/12/09 00:37:52;;;;;;;36.67;21.63;;;;;;;;;;5114148;28;20027;-73
2021/12/09 00:40:18;;;;;;;33.23;19.90;;;;;;;;;;5097156;28;20031;-72
2021/12/09 00:42:43;;;;;;;32.77;20.40;;;;;;;;;;5113101;28;20088;-72
2021/12/09 00:45:08;;;;;;;34.80;21.27;;;;;;;;;;5113288;28;20050;-73
2021/12/09 00:47:34;;;;;;;35.23;20.60;;;;;;;;;;5111107;28;20015;-73
2021/12/09 00:49:59;;;;;;;31.53;19.20;;;;;;;;;;5094691;28;20039;-74
2021/12/09 00:52:24;;;;;;;33.87;20.67;;;;;;;;;;5110835;27;20536;-72
2021/12/09 00:54:51;;;;;;;33.07;20.47;;;;;;;;;;5095480;28;20114;-72
2021/12/09 00:57:16;;;;;;;33.80;20.70;;;;;;;;;;5112085;28;20039;-73
2021/12/09 00:59:41;;;;;;;33.97;20.87;;;;;;;;;;5108119;27;20020;-73
2021/12/09 01:02:06;;;;;;;34.83;20.10;;;;;;;;;;5111648;28;20114;-73
2021/12/09 01:04:31;;;;;;;32.30;19.53;;;;;;;;;;5112141;28;20020;-73
2021/12/09 01:06:57;;;;;;;33.87;20.73;;;;;;;;;;5095691;28;20031;-73
2021/12/09 01:09:22;;;;;;;30.87;18.83;;;;;;;;;;5110764;28;20030;-72
2021/12/09 01:11:47;;;;;;;29.60;19.57;;;;;;;;;;5111016;28;20073;-73
2021/12/09 01:14:12;;;;;;;31.47;19.77;;;;;;;;;;5112207;28;20020;-72
2021/12/09 01:16:38;;;;;;;33.27;20.07;;;;;;;;;;5115022;27;20019;-73
2021/12/09 01:19:03;;;;;;;34.83;21.80;;;;;;;;;;5113404;28;20018;-74
2021/12/09 01:21:29;;;;;;;32.23;19.63;;;;;;;;;;5094576;28;20045;-73
2021/12/09 01:23:54;;;;;;;33.30;20.30;;;;;;;;;;5111842;28;20507;-73
2021/12/09 01:26:20;;;;;;;35.33;20.50;;;;;;;;;;5108909;28;20024;-72
2021/12/09 01:41:22;;;;;;;32.73;19.30;;;;;;;;;;5113116;28;20729;-72
2021/12/09 01:43:47;;;;;;;31.23;19.70;;;;;;;;;;5111094;28;20024;-73
2021/12/09 01:46:14;;;;;;;33.67;19.83;;;;;;;;;;5111437;28;20030;-72
2021/12/09 01:48:40;;;;;;;34.27;19.73;;;;;;;;;;5109272;28;20091;-72
2021/12/09 01:51:06;;;;;;;33.07;19.90;;;;;;;;;;5112971;28;20020;-72
2021/12/09 01:53:31;;;;;;;32.40;20.47;;;;;;;;;;5094498;28;20096;-73
2021/12/09 01:55:58;;;;;;;30.57;19.00;;;;;;;;;;5094729;28;20429;-72
2021/12/09 01:58:23;;;;;;;33.00;19.80;;;;;;;;;;5098641;28;20534;-73
2021/12/09 02:00:49;;;;;;;31.47;19.67;;;;;;;;;;5099545;28;20024;-73
2021/12/09 02:03:14;;;;;;;31.03;19.53;;;;;;;;;;5107318;28;20114;-73
2021/12/09 02:05:41;;;;;;;34.30;19.47;;;;;;;;;;5106699;28;20023;-73
2021/12/09 02:08:07;;;;;;;31.30;19.37;;;;;;;;;;5110797;28;20500;-74
2021/12/09 02:10:32;;;;;;;31.60;19.50;;;;;;;;;;5111382;28;20046;-74
2021/12/09 02:12:57;;;;;;;35.07;21.30;;;;;;;;;;5112170;28;20472;-72
2021/12/09 02:15:23;;;;;;;34.23;20.13;;;;;;;;;;5112314;28;20375;-72
2021/12/09 02:17:49;;;;;;;32.60;20.73;;;;;;;;;;5092221;28;20395;-74
2021/12/09 02:20:15;;;;;;;32.67;21.20;;;;;;;;;;5112793;28;20020;-74
2021/12/09 02:22:45;;;;;;;32.47;20.17;;;;;;;;;;5112354;28;20073;-73
2021/12/09 02:25:11;;;;;;;31.80;19.90;;;;;;;;;;5108398;28;20502;-72
2021/12/09 02:27:36;;;;;;;35.60;21.03;;;;;;;;;;5111745;28;20047;-74
2021/12/09 02:30:02;;;;;;;32.37;20.07;;;;;;;;;;5096579;28;20047;-74
2021/12/09 02:32:27;;;;;;;31.53;20.40;;;;;;;;;;5110427;28;20148;-73
2021/12/09 02:34:52;;;;;;;36.83;20.70;;;;;;;;;;5103682;28;20035;-73
2021/12/09 02:37:18;;;;;;;37.33;21.33;;;;;;;;;;5092856;27;20483;-74
2021/12/09 02:39:44;;;;;;;35.67;20.07;;;;;;;;;;5128152;27;20030;-74
2021/12/09 02:42:09;;;;;;;36.47;20.50;;;;;;;;;;5109869;28;20024;-74
2021/12/09 02:44:34;;;;;;;34.40;20.57;;;;;;;;;;5111390;28;20023;-74
2021/12/09 02:47:00;;;;;;;36.33;21.37;;;;;;;;;;5110795;28;20110;-73
2021/12/09 02:49:26;;;;;;;37.77;22.67;;;;;;;;;;5110827;28;20396;-73
2021/12/09 02:51:52;;;;;;;36.30;21.57;;;;;;;;;;5112485;28;20077;-71
2021/12/09 02:54:18;;;;;;;36.33;21.63;;;;;;;;;;5111487;28;20031;-72
2021/12/09 02:56:44;;;;;;;37.43;22.30;;;;;;;;;;5078907;28;20035;-72
2021/12/09 02:59:10;;;;;;;42.07;23.63;;;;;;;;;;5105136;28;20022;-72
2021/12/09 03:01:46;;;;;;;41.50;23.57;;;;;;;;;;5111324;27;20027;-72
2021/12/09 03:04:12;;;;;;;35.67;21.87;;;;;;;;;;5113950;28;20428;-72
2021/12/09 03:06:39;;;;;;;39.40;22.70;;;;;;;;;;5114250;28;20087;-72
2021/12/09 03:09:11;;;;;;;39.03;22.80;;;;;;;;;;5112265;28;20553;-72
2021/12/09 03:11:36;;;;;;;40.47;24.30;;;;;;;;;;5113165;27;20034;-72
2021/12/09 03:14:02;;;;;;;40.13;22.63;;;;;;;;;;5101340;27;20027;-72
2021/12/09 03:16:27;;;;;;;40.23;23.10;;;;;;;;;;5114650;27;20019;-72
2021/12/09 03:18:55;;;;;;;39.13;22.30;;;;;;;;;;5132783;27;20064;-72
2021/12/09 03:21:27;;;;;;;44.00;23.93;;;;;;;;;;5118262;27;20050;-72
2021/12/09 03:23:54;;;;;;;40.40;23.27;;;;;;;;;;5109894;27;20019;-72
2021/12/09 03:26:25;;;;;;;43.57;23.37;;;;;;;;;;5117379;27;20467;-72
2021/12/09 03:28:50;;;;;;;39.90;22.40;;;;;;;;;;5105770;27;20040;-72
2021/12/09 03:31:16;;;;;;;39.13;22.67;;;;;;;;;;5129035;27;20022;-72
2021/12/09 03:33:41;;;;;;;39.97;22.93;;;;;;;;;;5097200;28;20490;-72
2021/12/09 03:36:06;;;;;;;41.53;22.93;;;;;;;;;;5107974;27;20383;-72
2021/12/09 03:38:32;;;;;;;39.83;23.20;;;;;;;;;;5097627;27;20015;-72
2021/12/09 03:40:58;;;;;;;57.60;35.77;;;;;;;;;;5117764;27;20024;-72
2021/12/09 03:43:23;;;;;;;39.20;21.77;;;;;;;;;;5118156;27;20031;-72
2021/12/09 03:45:50;;;;;;;40.50;21.57;;;;;;;;;;5134879;27;20015;-72
2021/12/09 03:48:15;;;;;;;40.30;22.80;;;;;;;;;;5100339;27;20118;-72
2021/12/09 03:50:43;;;;;;;38.60;22.03;;;;;;;;;;5133654;27;20485;-72
2021/12/09 03:53:08;;;;;;;34.97;20.90;;;;;;;;;;5117693;27;20035;-72
2021/12/09 03:55:33;;;;;;;40.17;22.20;;;;;;;;;;5117490;27;20043;-72
2021/12/09 03:57:58;;;;;;;40.10;22.80;;;;;;;;;;5099878;27;20031;-72
2021/12/09 04:00:27;;;;;;;38.47;22.50;;;;;;;;;;5110606;27;20486;-72
2021/12/09 04:02:52;;;;;;;36.30;21.23;;;;;;;;;;5116399;27;20107;-72
2021/12/09 04:05:18;;;;;;;37.40;22.30;;;;;;;;;;5116438;27;20026;-72
2021/12/09 04:07:43;;;;;;;39.20;21.70;;;;;;;;;;5134042;27;20076;-72
2021/12/09 04:10:08;;;;;;;40.50;22.33;;;;;;;;;;5115128;27;20055;-72
2021/12/09 04:12:34;;;;;;;40.60;22.20;;;;;;;;;;5117023;27;20110;-72
2021/12/09 04:14:59;;;;;;;38.70;21.03;;;;;;;;;;5116868;27;20019;-72
2021/12/09 04:17:24;;;;;;;36.40;21.47;;;;;;;;;;5116910;27;20109;-72
2021/12/09 04:19:50;;;;;;;40.87;21.43;;;;;;;;;;5134984;27;20465;-72
2021/12/09 04:22:16;;;;;;;37.37;20.23;;;;;;;;;;5099925;27;20384;-72
2021/12/09 04:24:42;;;;;;;37.03;21.27;;;;;;;;;;5134541;27;20026;-72
2021/12/09 04:27:07;;;;;;;34.83;21.43;;;;;;;;;;5133276;27;20443;-71
2021/12/09 04:29:32;;;;;;;38.43;21.37;;;;;;;;;;5128813;27;20019;-71
2021/12/09 04:31:57;;;;;;;34.53;20.23;;;;;;;;;;5115117;27;20386;-70
2021/12/09 04:34:23;;;;;;;37.47;21.13;;;;;;;;;;5116562;27;20409;-71
2021/12/09 04:36:48;;;;;;;38.00;21.60;;;;;;;;;;5134343;27;20017;-71
2021/12/09 04:39:14;;;;;;;37.47;20.67;;;;;;;;;;5099402;27;20488;-71
2021/12/09 04:41:39;;;;;;;36.23;20.57;;;;;;;;;;5135006;27;20019;-71
2021/12/09 04:44:05;;;;;;;36.03;20.27;;;;;;;;;;5135132;27;20027;-71
2021/12/09 04:46:30;;;;;;;36.27;20.87;;;;;;;;;;5106569;28;20480;-71
2021/12/09 04:48:56;;;;;;;37.17;20.93;;;;;;;;;;5095646;27;20033;-71
2021/12/09 04:51:22;;;;;;;35.47;21.50;;;;;;;;;;5116974;27;20015;-71
2021/12/09 04:53:47;;;;;;;36.60;22.07;;;;;;;;;;5114988;27;20746;-71
2021/12/09 04:56:12;;;;;;;34.53;20.67;;;;;;;;;;5134486;27;20015;-71
2021/12/09 04:58:41;;;;;;;37.80;20.93;;;;;;;;;;5130277;27;20510;-71
2021/12/09 05:01:06;;;;;;;36.20;21.20;;;;;;;;;;5104889;28;20023;-71
2021/12/09 05:03:32;;;;;;;34.00;20.10;;;;;;;;;;5128763;27;20042;-71
2021/12/09 05:05:58;;;;;;;39.70;21.80;;;;;;;;;;5115805;27;20104;-71
2021/12/09 05:08:24;;;;;;;39.90;21.93;;;;;;;;;;5133056;27;20027;-71
2021/12/09 05:11:06;;;;;;;39.13;22.20;;;;;;;;;;5134770;27;20046;-71
2021/12/09 05:13:32;;;;;;;37.37;22.23;;;;;;;;;;5113585;27;20110;-71
2021/12/09 05:15:59;;;;;;;35.80;21.73;;;;;;;;;;5133721;27;20072;-71
2021/12/09 05:18:24;;;;;;;38.90;22.30;;;;;;;;;;5130477;27;20015;-71
2021/12/09 05:20:50;;;;;;;41.30;23.30;;;;;;;;;;5115465;27;20467;-72
2021/12/09 05:23:16;;;;;;;37.47;21.03;;;;;;;;;;5097477;27;20069;-72
2021/12/09 05:25:42;;;;;;;37.57;21.93;;;;;;;;;;5104179;27;20016;-67
2021/12/09 05:28:09;;;;;;;38.53;22.33;;;;;;;;;;5104302;27;20034;-69
2021/12/09 05:32:07;;;;;;;33.13;20.77;;;;;;;;;;5124003;27;20019;-70
2021/12/09 05:33:23;;;;;;;34.00;20.47;;;;;;;;;;5121480;27;20030;-69
2021/12/09 05:35:48;;;;;;;38.50;21.47;;;;;;;;;;5097964;27;20399;-70
2021/12/09 05:38:13;;;;;;;38.70;21.60;;;;;;;;;;5087418;28;20016;-69
2021/12/09 05:40:38;;;;;;;37.50;21.17;;;;;;;;;;5131700;27;20026;-69
2021/12/09 05:43:03;;;;;;;38.10;20.93;;;;;;;;;;5115337;27;20027;-69
2021/12/09 05:45:28;;;;;;;37.53;21.07;;;;;;;;;;5114467;27;20126;-69
2021/12/09 05:47:54;;;;;;;38.60;20.97;;;;;;;;;;5097140;27;20382;-69
2021/12/09 05:50:19;;;;;;;39.27;21.10;;;;;;;;;;5126808;27;20487;-67
2021/12/09 05:52:44;;;;;;;37.20;20.50;;;;;;;;;;5133892;27;20038;-68
2021/12/09 05:55:09;;;;;;;36.10;19.80;;;;;;;;;;5123231;27;20026;-67
2021/12/09 05:57:34;;;;;;;37.57;21.57;;;;;;;;;;5111308;27;20015;-68
2021/12/09 06:00:00;;;;;;;34.83;20.37;;;;;;;;;;5119796;27;20117;-67
2021/12/09 06:02:26;;;;;;;32.03;19.47;;;;;;;;;;5102025;27;20507;-66
2021/12/09 06:04:52;;;;;;;34.47;19.93;;;;;;;;;;5117532;27;20463;-69
2021/12/09 06:07:18;;;;;;;34.73;20.03;;;;;;;;;;5113296;27;20088;-69
2021/12/09 06:09:43;;;;;;;32.57;19.83;;;;;;;;;;5111079;27;20378;-68
2021/12/09 06:12:08;;;;;;;34.30;19.83;;;;;;;;;;5114933;27;20421;-69
2021/12/09 06:14:34;;;;;;;31.77;18.20;;;;;;;;;;5129533;27;20114;-68
2021/12/09 06:16:59;;;;;;;32.40;19.20;;;;;;;;;;5114305;27;20516;-69
2021/12/09 06:19:24;;;;;;;37.90;21.33;;;;;;;;;;5114497;27;20463;-68
2021/12/09 06:21:50;;;;;;;34.73;19.30;;;;;;;;;;5133365;27;20027;-68
2021/12/09 06:24:18;;;;;;;37.67;20.70;;;;;;;;;;5115177;27;20070;-68
2021/12/09 06:26:43;;;;;;;34.87;21.23;;;;;;;;;;5114411;27;20019;-68
2021/12/09 06:29:08;;;;;;;32.97;18.53;;;;;;;;;;5111410;27;20027;-68
2021/12/09 06:31:33;;;;;;;31.50;18.87;;;;;;;;;;5093176;28;20035;-68
2021/12/09 06:33:59;;;;;;;33.57;19.53;;;;;;;;;;5121875;27;20019;-68
2021/12/09 06:36:24;;;;;;;35.00;19.10;;;;;;;;;;5095576;28;20030;-68
2021/12/09 06:38:49;;;;;;;32.90;20.03;;;;;;;;;;5132922;27;20011;-67
2021/12/09 06:41:15;;;;;;;35.90;20.93;;;;;;;;;;5113436;27;20463;-68
2021/12/09 06:43:43;;;;;;;36.80;20.03;;;;;;;;;;5114453;28;20114;-68
2021/12/09 06:46:09;;;;;;;32.37;18.73;;;;;;;;;;5113038;27;20035;-68
2021/12/09 06:48:35;;;;;;;34.37;18.43;;;;;;;;;;5132374;27;20019;-68
2021/12/09 06:51:01;;;;;;;34.60;18.80;;;;;;;;;;5113892;27;20033;-68
2021/12/09 06:53:27;;;;;;;34.43;17.73;;;;;;;;;;5123839;27;20091;-68
2021/12/09 06:55:52;;;;;;;32.23;17.70;;;;;;;;;;5114478;27;20110;-68
2021/12/09 06:58:18;;;;;;;42.13;20.77;;;;;;;;;;5111358;27;20395;-68
2021/12/09 07:00:46;;;;;;;41.13;19.43;;;;;;;;;;5101555;28;20020;-68
2021/12/09 07:03:12;;;;;;;34.87;19.40;;;;;;;;;;5094947;28;20043;-68
2021/12/09 07:05:37;;;;;;;42.80;21.47;;;;;;;;;;5111624;28;20091;-68
2021/12/09 07:08:03;;;;;;;42.67;20.17;;;;;;;;;;5132071;28;20027;-69
2021/12/09 07:10:29;;;;;;;38.53;20.70;;;;;;;;;;5125284;28;20059;-68
2021/12/09 07:12:54;;;;;;;37.40;19.97;;;;;;;;;;5129730;28;20057;-69
2021/12/09 07:15:20;;;;;;;40.23;20.17;;;;;;;;;;5093644;28;20134;-68
2021/12/09 07:17:45;;;;;;;40.83;21.13;;;;;;;;;;5113116;28;20016;-68
2021/12/09 07:20:12;;;;;;;41.87;22.47;;;;;;;;;;5111884;28;20019;-69
2021/12/09 07:22:37;;;;;;;39.00;21.33;;;;;;;;;;5112418;28;20027;-69
2021/12/09 07:25:03;;;;;;;42.77;21.53;;;;;;;;;;5119443;28;20360;-69
2021/12/09 07:27:29;;;;;;;41.00;21.53;;;;;;;;;;5130604;28;20120;-69
2021/12/09 07:29:54;;;;;;;42.30;20.77;;;;;;;;;;5127428;27;20487;-69
2021/12/09 07:32:19;;;;;;;43.40;20.67;;;;;;;;;;5118255;28;20386;-70
2021/12/09 07:34:44;;;;;;;43.50;21.43;;;;;;;;;;5117806;28;20114;-69
2021/12/09 07:37:09;;;;;;;40.50;20.80;;;;;;;;;;5132360;27;20098;-69
2021/12/09 07:39:35;;;;;;;38.70;20.40;;;;;;;;;;5096846;28;20030;-69
2021/12/09 07:42:00;;;;;;;38.30;19.37;;;;;;;;;;5114492;28;20083;-69
2021/12/09 07:44:27;;;;;;;40.67;19.77;;;;;;;;;;5132442;28;20482;-69
2021/12/09 07:46:54;;;;;;;37.57;19.07;;;;;;;;;;5131402;28;20027;-69
2021/12/09 07:49:19;;;;;;;35.70;18.60;;;;;;;;;;5129317;28;20044;-69
2021/12/09 07:51:45;;;;;;;37.17;19.97;;;;;;;;;;5113805;28;20058;-69
2021/12/09 07:54:10;;;;;;;35.30;18.33;;;;;;;;;;5130063;28;20305;-69
2021/12/09 07:56:35;;;;;;;41.77;20.30;;;;;;;;;;5125349;27;20028;-69
2021/12/09 07:59:01;;;;;;;37.53;18.73;;;;;;;;;;5109586;27;20506;-66
2021/12/09 08:01:26;;;;;;;43.57;20.87;;;;;;;;;;5112798;27;20015;-67
2021/12/09 08:03:51;;;;;;;49.50;21.07;;;;;;;;;;5143759;27;20052;-67
2021/12/09 08:06:16;;;;;;;44.57;19.93;;;;;;;;;;5116557;27;20011;-69
2021/12/09 08:08:42;;;;;;;49.70;22.37;;;;;;;;;;5094649;27;20416;-69
2021/12/09 08:11:07;;;;;;;41.83;20.87;;;;;;;;;;5133206;27;20128;-69
2021/12/09 08:13:33;;;;;;;49.07;20.67;;;;;;;;;;5134642;27;20020;-68
2021/12/09 08:16:00;;;;;;;56.10;21.47;;;;;;;;;;5133029;27;20031;-69
2021/12/09 08:18:27;;;;;;;49.60;22.20;;;;;;;;;;5132784;27;20098;-69
2021/12/09 08:20:54;;;;;;;45.70;22.63;;;;;;;;;;5133961;27;20129;-69
2021/12/09 08:23:19;;;;;;;48.63;22.20;;;;;;;;;;5123455;27;20030;-69
2021/12/09 08:25:45;;;;;;;58.00;23.00;;;;;;;;;;5124642;27;20015;-69
2021/12/09 08:28:11;;;;;;;51.40;22.73;;;;;;;;;;5116095;27;20023;-69
2021/12/09 08:30:38;;;;;;;47.47;21.37;;;;;;;;;;5106140;27;20037;-69
2021/12/09 08:33:05;;;;;;;55.73;22.63;;;;;;;;;;5125172;27;20055;-69
2021/12/09 08:35:30;;;;;;;57.33;23.60;;;;;;;;;;5129670;27;20030;-69
2021/12/09 08:37:58;;;;;;;61.23;23.87;;;;;;;;;;5108304;27;20015;-69
2021/12/09 08:40:24;;;;;;;51.50;22.33;;;;;;;;;;5110442;27;20023;-66
2021/12/09 08:42:49;;;;;;;50.37;21.73;;;;;;;;;;5107998;27;20084;-67
2021/12/09 08:45:15;;;;;;;51.17;21.43;;;;;;;;;;5109200;27;20070;-67
2021/12/09 08:47:42;;;;;;;48.90;22.33;;;;;;;;;;5126350;27;20023;-67
2021/12/09 08:50:08;;;;;;;50.10;21.70;;;;;;;;;;5107807;27;20028;-68
2021/12/09 08:52:33;;;;;;;47.80;21.80;;;;;;;;;;5109132;27;20039;-67
2021/12/09 08:54:59;;;;;;;48.97;22.50;;;;;;;;;;5110488;27;20022;-68
2021/12/09 08:57:24;;;;;;;52.87;22.57;;;;;;;;;;5104872;27;20022;-67
2021/12/09 08:59:49;;;;;;;60.30;23.63;;;;;;;;;;5119734;27;20019;-68
2021/12/09 09:02:15;;;;;;;50.30;21.63;;;;;;;;;;5089393;27;20104;-68
2021/12/09 09:04:40;;;;;;;62.57;22.07;;;;;;;;;;5096779;27;20057;-68
2021/12/09 09:07:06;;;;;;;41.77;19.33;;;;;;;;;;5133556;27;20019;-68
2021/12/09 09:09:34;;;;;;;47.63;20.63;;;;;;;;;;5105041;27;20027;-68
2021/12/09 09:11:59;;;;;;;45.93;20.87;;;;;;;;;;5132263;27;20088;-68
2021/12/09 09:14:25;;;;;;;49.60;21.83;;;;;;;;;;5095337;28;20428;-68
2021/12/09 09:16:50;;;;;;;41.43;18.77;;;;;;;;;;5127985;27;20015;-68
2021/12/09 09:19:15;;;;;;;41.77;18.07;;;;;;;;;;5114240;27;20027;-68
2021/12/09 09:21:42;;;;;;;39.23;18.07;;;;;;;;;;5134428;27;20031;-68
2021/12/09 09:24:07;;;;;;;39.37;17.97;;;;;;;;;;5114626;27;20068;-68
2021/12/09 09:26:33;;;;;;;39.67;17.43;;;;;;;;;;5130789;27;20489;-68
2021/12/09 09:28:58;;;;;;;35.93;18.03;;;;;;;;;;5108114;27;20024;-68
2021/12/09 09:31:27;;;;;;;32.37;15.83;;;;;;;;;;5128849;27;20497;-68
2021/12/09 09:33:52;;;;;;;35.30;15.60;;;;;;;;;;5114637;27;20026;-68
2021/12/09 09:36:18;;;;;;;38.50;17.67;;;;;;;;;;5126031;27;20027;-69
2021/12/09 09:38:43;;;;;;;36.50;17.30;;;;;;;;;;5126275;27;20076;-69
2021/12/09 09:41:10;;;;;;;35.33;17.87;;;;;;;;;;5110202;27;20111;-68
2021/12/09 09:46:21;;;;;;;35.47;19.20;;;;;;;;;;5120231;27;20027;-68
2021/12/09 09:48:47;;;;;;;35.33;17.53;;;;;;;;;;5103103;27;20035;-68
2021/12/09 09:51:13;;;;;;;38.80;17.83;;;;;;;;;;5088401;27;20071;-68
2021/12/09 09:53:41;;;;;;;41.97;18.40;;;;;;;;;;5126893;27;20539;-68
2021/12/09 09:56:13;;;;;;;40.03;19.20;;;;;;;;;;5124735;27;20406;-67
2021/12/09 09:58:39;;;;;;;36.70;17.00;;;;;;;;;;5106768;27;20743;-68
2021/12/09 10:01:04;;;;;;;36.67;18.30;;;;;;;;;;5123909;27;20483;-68
2021/12/09 10:03:31;;;;;;;36.53;17.43;;;;;;;;;;5093684;27;20488;-67
2021/12/09 10:05:57;;;;;;;37.50;17.33;;;;;;;;;;5130110;27;20034;-68
2021/12/09 10:08:23;;;;;;;36.40;18.00;;;;;;;;;;5128150;27;20023;-67
2021/12/09 10:10:48;;;;;;;35.27;17.70;;;;;;;;;;5109465;27;20027;-67
2021/12/09 10:13:15;;;;;;;34.50;16.27;;;;;;;;;;5107859;27;20023;-67
2021/12/09 10:15:45;;;;;;;38.07;18.37;;;;;;;;;;5121806;27;20015;-68
2021/12/09 10:18:10;;;;;;;37.20;17.50;;;;;;;;;;5105103;27;20054;-68
2021/12/09 10:20:51;;;;;;;37.23;16.87;;;;;;;;;;5121731;27;20468;-69
2021/12/09 10:23:22;;;;;;;32.47;16.00;;;;;;;;;;5123552;27;20054;-69
2021/12/09 10:26:07;;;;;;;33.20;15.80;;;;;;;;;;5117234;27;20023;-69
2021/12/09 10:28:34;;;;;;;35.47;16.30;;;;;;;;;;5115832;27;20639;-69
2021/12/09 10:31:23;;;;;;;32.20;15.77;;;;;;;;;;5112494;27;20483;-69
2021/12/09 10:34:26;;;;;;;38.80;17.63;;;;;;;;;;5097688;27;20406;-68
2021/12/09 10:37:09;;;;;;;34.50;16.23;;;;;;;;;;5120155;27;20132;-69
2021/12/09 10:39:34;;;;;;;;;;;;;;;;;;5123941;27;20475;-69
2021/12/09 10:42:02;;;;;;;36.50;16.88;;;;;;;;;;5122535;27;19907;-68
2021/12/09 10:44:32;;;;;;;37.80;16.83;;;;;;;;;;5106358;27;20052;-68
2021/12/09 10:49:47;;;;;;;;;;;;;;;;;;5099565;27;20051;-68
2021/12/09 10:52:38;;;;;;;30.20;15.03;;;;;;;;;;5126974;27;19918;-69
2021/12/09 10:55:12;;;;;;;34.87;15.77;;;;;;;;;;5125996;27;20023;-68
2021/12/09 10:57:37;;;;;;;34.73;16.83;;;;;;;;;;5107042;27;20470;-68
2021/12/09 11:00:15;;;;;;;35.60;16.30;;;;;;;;;;5111629;27;20158;-69
2021/12/09 11:02:55;;;;;;;32.87;16.57;;;;;;;;;;5123566;27;20043;-68
2021/12/09 11:05:21;;;;;;;31.63;15.83;;;;;;;;;;5106236;27;20166;-68
2021/12/09 11:07:46;;;;;;;32.73;15.53;;;;;;;;;;5106072;28;20035;-68
2021/12/09 11:10:14;;;;;;;34.00;15.77;;;;;;;;;;5123350;27;20031;-68
2021/12/09 11:12:47;;;;;;;36.80;16.57;;;;;;;;;;5122611;28;20031;-69
2021/12/09 11:15:12;;;;;;;32.07;15.80;;;;;;;;;;5101367;28;20023;-67
2021/12/09 11:17:41;;;;;;;32.80;15.63;;;;;;;;;;5083185;28;20054;-68
2021/12/09 11:20:07;;;;;;;29.37;15.83;;;;;;;;;;5102643;28;20375;-69
2021/12/09 11:22:35;;;;;;;25.03;12.87;;;;;;;;;;5107433;28;20028;-68
2021/12/09 11:25:04;;;;;;;23.77;13.23;;;;;;;;;;5102111;28;20680;-68
2021/12/09 11:27:30;;;;;;;27.13;14.90;;;;;;;;;;5100615;28;20383;-68
2021/12/09 11:30:07;;;;;;;27.93;14.57;;;;;;;;;;5099771;28;20481;-68
2021/12/09 11:32:48;;;;;;;23.33;12.63;;;;;;;;;;5103751;27;20165;-69
2021/12/09 11:35:24;;;;;;;30.23;15.17;;;;;;;;;;5129175;27;20018;-68
2021/12/09 11:40:21;;;;;;;23.83;13.27;;;;;;;;;;5128457;27;20375;-69
2021/12/09 11:42:54;;;;;;;29.03;14.00;;;;;;;;;;5126000;27;20027;-69
2021/12/09 11:45:21;;;;;;;24.83;13.83;;;;;;;;;;5122306;27;20038;-68
2021/12/09 11:47:50;;;;;;;25.37;14.20;;;;;;;;;;5123338;27;20027;-69
2021/12/09 11:50:19;;;;;;;24.90;13.53;;;;;;;;;;5128780;27;20071;-68
2021/12/09 11:52:45;;;;;;;21.97;13.03;;;;;;;;;;5125720;27;20467;-68
2021/12/09 11:55:13;;;;;;;20.37;11.13;;;;;;;;;;5126089;27;20023;-69
2021/12/09 12:11:32;;;;;;;21.90;12.00;;;;;;;;;;5128027;27;20035;-68
2021/12/09 12:14:15;;;;;;;20.77;12.37;;;;;;;;;;5111040;27;20044;-69
2021/12/09 12:16:58;;;;;;;22.43;12.83;;;;;;;;;;5095803;27;20023;-68
2021/12/09 12:19:44;;;;;;;19.87;12.13;;;;;;;;;;5111366;27;20096;-68
2021/12/09 12:22:42;;;;;;;21.67;12.50;;;;;;;;;;5129304;27;20026;-68
2021/12/09 12:25:23;;;;;;;23.40;12.63;;;;;;;;;;5114164;27;20375;-68
2021/12/09 12:28:06;;;;;;;24.93;12.53;;;;;;;;;;5126878;27;20034;-68
2021/12/09 12:31:16;;;;;;;19.60;11.73;;;;;;;;;;5097784;27;20023;-68
2021/12/09 12:39:34;;;;;;;22.83;13.52;;;;;;;;;;5127488;27;20023;-69
2021/12/09 12:42:04;;;;;;;21.07;11.60;;;;;;;;;;5092396;27;20052;-69
2021/12/09 12:44:31;;;;;;;20.90;12.37;;;;;;;;;;5112482;27;20069;-69
2021/12/09 12:47:11;;;;;;;24.80;15.50;;;;;;;;;;5114694;27;20023;-69
2021/12/09 12:49:38;;;;;;;20.03;11.73;;;;;;;;;;5099753;27;20034;-67
2021/12/09 12:52:14;;;;;;;23.60;13.83;;;;;;;;;;5130533;27;20019;-67
2021/12/09 12:57:17;;;;;;;18.83;12.00;;;;;;;;;;5111974;27;20026;-68
2021/12/09 12:59:58;;;;;;;19.00;11.10;;;;;;;;;;5106191;27;20075;-68
2021/12/09 13:05:50;;;;;;;23.35;13.05;;;;;;;;;;5107034;28;20035;-68
2021/12/09 13:13:40;;;;;;;21.17;12.13;;;;;;;;;;5109564;28;20031;-68
2021/12/09 13:17:00;;;;;;;20.07;11.73;;;;;;;;;;5108990;28;20479;-68
2021/12/09 13:21:40;;;;;;;23.53;12.53;;;;;;;;;;5108354;28;20391;-68
2021/12/09 13:27:06;;;;;;;20.40;12.37;;;;;;;;;;5104019;28;20040;-68
2021/12/09 13:29:59;;;;;;;23.77;11.97;;;;;;;;;;5087531;28;20543;-67
2021/12/09 13:33:02;;;;;;;20.50;11.43;;;;;;;;;;5089806;28;20050;-68
2021/12/09 13:35:40;;;;;;;21.10;11.57;;;;;;;;;;5095495;28;20396;-67
2021/12/09 13:48:59;;;;;;;20.77;13.23;;;;;;;;;;5107932;28;20055;-67
2021/12/09 13:54:28;;;;;;;28.07;16.43;;;;;;;;;;5109684;28;20020;-67
2021/12/09 13:56:59;;;;;;;25.23;13.30;;;;;;;;;;5097795;28;20093;-67
2021/12/09 13:59:26;;;;;;;24.90;15.70;;;;;;;;;;5105490;28;20026;-67
2021/12/09 14:01:53;;;;;;;22.37;13.90;;;;;;;;;;5110341;27;20039;-67
2021/12/09 14:04:21;;;;;;;24.27;13.87;;;;;;;;;;5113177;27;20057;-67
2021/12/09 14:06:52;;;;;;;25.00;14.37;;;;;;;;;;5084310;28;20273;-67
2021/12/09 14:09:17;;;;;;;28.60;15.47;;;;;;;;;;5111638;27;20106;-68
2021/12/09 14:11:48;;;;;;;27.73;14.93;;;;;;;;;;5109126;27;20118;-67
2021/12/09 14:14:18;;;;;;;26.43;14.83;;;;;;;;;;5105202;27;20016;-67
2021/12/09 14:21:38;;;;;;;23.90;14.37;;;;;;;;;;5124789;27;20080;-67
2021/12/09 14:24:03;;;;;;;22.00;13.47;;;;;;;;;;5089406;27;20047;-66
2021/12/09 14:26:28;;;;;;;20.56;13.26;;;;;;;;;;5107134;27;20505;-70
2021/12/09 14:28:57;;;;;;;26.20;15.03;;;;;;;;;;5097816;27;20096;-69
2021/12/09 14:31:22;;;;;;;27.63;14.87;;;;;;;;;;5122422;27;20149;-72
2021/12/09 14:33:48;;;;;;;24.33;14.30;;;;;;;;;;5090437;27;20558;-71
2021/12/09 14:36:13;;;;;;;21.30;13.57;;;;;;;;;;5092958;27;20038;-68
2021/12/09 14:38:40;;;;;;;22.77;14.37;;;;;;;;;;5109185;27;20043;-68
2021/12/09 14:41:17;;;;;;;22.70;13.43;;;;;;;;;;5127639;27;20091;-68
2021/12/09 14:43:45;;;;;;;21.57;13.00;;;;;;;;;;5109648;27;20140;-71
2021/12/09 14:46:11;;;;;;;22.60;13.20;;;;;;;;;;5108555;27;20475;-70
2021/12/09 14:48:46;;;;;;;26.37;14.07;;;;;;;;;;5108450;28;20432;-72
2021/12/09 14:51:15;;;;;;;26.42;15.02;;;;;;;;;;5126927;27;20031;-73
2021/12/09 14:53:42;;;;;;;21.53;13.50;;;;;;;;;;5109611;27;20031;-74
2021/12/09 14:56:18;;;;;;;23.03;15.53;;;;;;;;;;5127907;27;20015;-73
2021/12/09 14:58:44;;;;;;;28.73;15.90;;;;;;;;;;5118649;27;20086;-70
2021/12/09 15:01:14;;;;;;;28.90;16.10;;;;;;;;;;5123212;27;20019;-74
2021/12/09 15:03:43;;;;;;;25.30;16.63;;;;;;;;;;5108638;28;20043;-72
2021/12/09 15:06:22;;;;;;;27.23;15.87;;;;;;;;;;5109801;28;20016;-72
2021/12/09 15:08:51;;;;;;;25.43;15.97;;;;;;;;;;5103098;28;20089;-72
2021/12/09 15:11:18;;;;;;;25.57;15.73;;;;;;;;;;5103723;28;20031;-73
2021/12/09 15:13:47;;;;;;;25.77;15.50;;;;;;;;;;5110022;28;20035;-72
2021/12/09 15:16:15;;;;;;;26.40;15.57;;;;;;;;;;5109199;28;20356;-73
2021/12/09 15:18:40;;;;;;;24.20;13.80;;;;;;;;;;5108466;28;20024;-73
2021/12/09 15:21:20;;;;;;;17.47;11.33;;;;;;;;;;5107502;28;20027;-72
2021/12/09 15:23:51;;;;;;;16.13;10.43;;;;;;;;;;5105893;28;20054;-73
2021/12/09 15:26:20;;;;;;;16.50;9.17;;;;;;;;;;5104662;28;20023;-74
2021/12/09 15:28:46;;;;;;;14.23;9.33;;;;;;;;;;5099571;28;20022;-74
2021/12/09 15:31:19;;;;;;;15.77;9.57;;;;;;;;;;5096394;28;20035;-73
2021/12/09 15:33:48;;;;;;;12.87;8.87;;;;;;;;;;5105829;28;20533;-73
2021/12/09 15:36:15;;;;;;;13.90;9.67;;;;;;;;;;5107079;28;20115;-73
2021/12/09 15:38:41;;;;;;;15.57;9.63;;;;;;;;;;5098312;28;20024;-72